createdAt,value
2018-04-14T00:01:13.918Z,32.57
2018-04-14T00:03:41.428Z,31.13
2018-04-14T00:06:08.967Z,31.53
2018-04-14T00:08:36.516Z,30.40
2018-04-14T00:11:06.423Z,30.67
2018-04-14T00:13:34.015Z,30.13
2018-04-14T00:16:02.607Z,30.63
2018-04-14T00:18:31.618Z,30.40
2018-04-14T00:20:59.163Z,29.60
2018-04-14T00:23:26.746Z,31.17
2018-04-14T00:25:54.300Z,29.83
2018-04-14T00:28:22.513Z,31.37
2018-04-14T00:30:50.152Z,30.53
2018-04-14T00:33:18.586Z,31.70
2018-04-14T00:35:46.075Z,31.13
2018-04-14T00:38:13.640Z,30.80
2018-04-14T00:40:41.182Z,30.57
2018-04-14T00:43:08.750Z,31.27
2018-04-14T00:45:38.515Z,31.00
2018-04-14T00:48:06.067Z,31.53
2018-04-14T00:50:34.155Z,32.47
2018-04-14T00:53:13.475Z,30.67
2018-04-14T00:55:41.039Z,32.47
2018-04-14T00:58:08.592Z,31.07
2018-04-14T01:00:36.242Z,31.47
2018-04-14T01:03:06.356Z,31.47
2018-04-14T01:05:33.960Z,32.97
2018-04-14T01:08:01.909Z,32.27
2018-04-14T01:10:31.675Z,31.93
2018-04-14T01:12:59.218Z,31.90
2018-04-14T01:15:26.720Z,32.20
2018-04-14T01:17:55.232Z,33.07
2018-04-14T01:20:24.715Z,31.07
2018-04-14T01:22:53.373Z,31.10
2018-04-14T01:25:25.252Z,30.70
2018-04-14T01:27:52.763Z,31.93
2018-04-14T01:30:20.264Z,31.83
2018-04-14T01:32:47.778Z,31.90
2018-04-14T01:35:15.385Z,30.77
2018-04-14T01:37:44.790Z,30.60
2018-04-14T01:40:14.366Z,30.37
2018-04-14T01:42:47.680Z,30.27
2018-04-14T01:45:15.215Z,30.50
2018-04-14T01:47:42.759Z,30.00
2018-04-14T01:50:10.288Z,28.93
2018-04-14T01:52:37.931Z,29.07
2018-04-14T01:55:08.624Z,29.97
2018-04-14T01:57:37.353Z,29.23
2018-04-14T02:00:05.928Z,30.93
2018-04-14T02:02:33.455Z,29.37
2018-04-14T02:05:00.999Z,29.73
2018-04-14T02:07:28.514Z,28.17
2018-04-14T02:09:56.231Z,29.37
2018-04-14T02:12:26.187Z,27.77
2018-04-14T02:14:56.645Z,29.00
2018-04-14T02:17:26.263Z,29.47
2018-04-14T02:19:53.883Z,29.33
2018-04-14T02:22:21.427Z,28.70
2018-04-14T02:24:48.986Z,29.53
2018-04-14T02:27:16.586Z,29.93
2018-04-14T02:29:46.635Z,27.93
2018-04-14T02:32:14.177Z,29.33
2018-04-14T02:34:44.772Z,27.53
2018-04-14T02:37:12.340Z,28.27
2018-04-14T02:39:39.834Z,28.73
2018-04-14T02:42:07.451Z,29.30
2018-04-14T02:44:35.060Z,28.50
2018-04-14T02:47:04.433Z,27.13
2018-04-14T02:49:33.167Z,27.97
2018-04-14T02:52:01.785Z,28.77
2018-04-14T02:54:29.306Z,28.43
2018-04-14T02:56:56.854Z,28.17
2018-04-14T02:59:24.448Z,27.07
2018-04-14T03:01:52.063Z,27.27
2018-04-14T03:04:20.632Z,26.62
2018-04-14T03:06:50.697Z,27.27
2018-04-14T03:09:22.095Z,27.63
2018-04-14T03:11:49.619Z,28.50
2018-04-14T03:14:17.162Z,27.00
2018-04-14T03:16:44.691Z,27.07
2018-04-14T03:19:12.314Z,28.57
2018-04-14T03:21:40.986Z,28.90
2018-04-14T03:24:13.553Z,26.87
2018-04-14T03:26:42.054Z,28.17
2018-04-14T03:29:09.583Z,27.40
2018-04-14T03:31:37.099Z,28.42
2018-04-14T03:34:04.639Z,27.83
2018-04-14T03:36:32.255Z,27.53
2018-04-14T03:39:02.207Z,26.90
2018-04-14T03:41:32.582Z,26.27
2018-04-14T03:44:02.671Z,27.67
2018-04-14T03:46:30.190Z,27.67
2018-04-14T03:48:57.727Z,28.70
2018-04-14T03:51:25.255Z,28.67
2018-04-14T03:53:52.863Z,29.55
2018-04-14T03:56:22.463Z,29.67
2018-04-14T03:58:50.059Z,29.52
2018-04-14T04:01:18.211Z,31.47
2018-04-14T04:03:45.754Z,29.80
2018-04-14T04:06:13.267Z,30.77
2018-04-14T04:08:40.795Z,30.40
2018-04-14T04:11:08.470Z,30.90
2018-04-14T04:13:38.769Z,30.73
2018-04-14T04:16:08.371Z,30.77
2018-04-14T04:18:49.507Z,29.97
2018-04-14T04:21:28.763Z,30.43
2018-04-14T04:24:08.070Z,31.17
2018-04-14T04:26:35.656Z,30.80
2018-04-14T04:29:05.055Z,30.77
2018-04-14T04:31:33.575Z,30.95
2018-04-14T04:34:03.165Z,31.37
2018-04-14T04:36:33.453Z,30.77
2018-04-14T04:39:00.951Z,29.23
2018-04-14T04:41:28.502Z,32.07
2018-04-14T04:43:55.994Z,30.67
2018-04-14T04:46:25.758Z,32.25
2018-04-14T04:48:54.904Z,31.73
2018-04-14T04:51:24.540Z,31.20
2018-04-14T04:53:54.619Z,31.40
2018-04-14T04:56:22.158Z,31.20
2018-04-14T04:58:49.683Z,32.50
2018-04-14T05:01:17.354Z,29.90
2018-04-14T05:06:21.472Z,27.83
2018-04-14T05:08:53.659Z,29.10
2018-04-14T05:11:22.567Z,29.13
2018-04-14T05:13:50.106Z,29.98
2018-04-14T05:16:17.726Z,29.13
2018-04-14T05:18:45.243Z,27.40
2018-04-14T05:21:13.665Z,28.97
2018-04-14T05:23:42.746Z,29.13
2018-04-14T05:26:12.303Z,27.63
2018-04-14T05:28:42.435Z,28.93
2018-04-14T05:31:09.947Z,27.93
2018-04-14T05:33:37.499Z,26.80
2018-04-14T05:36:05.040Z,26.80
2018-04-14T05:38:33.492Z,27.77
2018-04-14T05:41:01.898Z,26.80
2018-04-14T05:43:30.459Z,26.30
2018-04-14T05:45:58.243Z,27.97
2018-04-14T05:48:26.763Z,26.87
2018-04-14T05:50:55.363Z,25.73
2018-04-14T05:53:22.871Z,25.93
2018-04-14T05:55:53.547Z,26.93
2018-04-14T05:58:37.693Z,28.20
2018-04-14T06:01:13.563Z,25.37
2018-04-14T06:03:48.979Z,27.10
2018-04-14T06:06:16.550Z,27.87
2018-04-14T06:08:44.095Z,27.13
2018-04-14T06:11:11.674Z,27.93
2018-04-14T06:13:42.707Z,26.40
2018-04-14T06:18:44.785Z,28.23
2018-04-14T06:21:12.989Z,27.93
2018-04-14T06:23:40.522Z,26.98
2018-04-14T06:26:08.032Z,27.63
2018-04-14T06:28:35.543Z,27.80
2018-04-14T06:31:04.781Z,28.80
2018-04-14T06:33:32.998Z,27.77
2018-04-14T06:36:04.389Z,27.07
2018-04-14T06:38:34.405Z,27.20
2018-04-14T06:41:02.298Z,26.43
2018-04-14T06:43:29.799Z,26.33
2018-04-14T06:45:57.355Z,27.77
2018-04-14T06:48:34.007Z,26.57
2018-04-14T06:53:42.812Z,27.43
2018-04-14T06:56:17.001Z,25.90
2018-04-14T06:58:44.544Z,26.27
2018-04-14T07:01:12.144Z,25.03
2018-04-14T07:03:39.670Z,24.67
2018-04-14T07:06:12.625Z,25.30
2018-04-14T07:08:42.772Z,24.23
2018-04-14T07:35:30.543Z,22.50
2018-04-14T07:37:58.100Z,22.35
2018-04-14T07:40:26.407Z,22.40
2018-04-14T07:42:57.492Z,23.47
2018-04-14T07:45:26.117Z,23.67
2018-04-14T07:47:53.619Z,23.00
2018-04-14T07:50:21.153Z,23.00
2018-04-14T07:52:48.728Z,23.30
2018-04-14T07:55:16.288Z,22.67
2018-04-14T07:57:45.417Z,23.63
2018-04-14T08:00:14.654Z,22.40
2018-04-14T08:02:42.328Z,23.23
2018-04-14T08:05:09.871Z,22.87
2018-04-14T08:07:37.446Z,23.40
2018-04-14T08:10:04.992Z,22.73
2018-04-14T08:12:32.583Z,22.63
2018-04-14T08:15:00.804Z,22.07
2018-04-14T08:17:28.764Z,22.90
2018-04-14T08:19:56.828Z,22.97
2018-04-14T08:22:24.415Z,23.13
2018-04-14T08:24:51.936Z,23.90
2018-04-14T08:27:19.444Z,22.03
2018-04-14T08:29:47.035Z,23.77
2018-04-14T08:32:14.643Z,23.30
2018-04-14T08:34:42.238Z,23.13
2018-04-14T08:37:13.185Z,22.50
2018-04-14T08:39:40.703Z,22.00
2018-04-14T08:42:08.222Z,22.43
2018-04-14T08:44:35.811Z,23.47
2018-04-14T08:47:03.379Z,22.17
2018-04-14T08:49:31.287Z,23.37
2018-04-14T08:52:01.785Z,23.07
2018-04-14T08:54:30.614Z,21.10
2018-04-14T08:56:58.167Z,21.60
2018-04-14T08:59:25.726Z,20.47
2018-04-14T09:01:53.249Z,20.80
2018-04-14T09:04:20.812Z,20.77
2018-04-14T09:06:48.759Z,20.77
2018-04-14T09:09:16.775Z,21.10
2018-04-14T09:11:45.259Z,21.20
2018-04-14T09:14:12.863Z,21.03
2018-04-14T09:16:40.449Z,20.50
2018-04-14T09:19:07.991Z,21.20
2018-04-14T09:21:35.600Z,20.27
2018-04-14T09:24:03.085Z,20.50
2018-04-14T09:26:30.615Z,20.73
2018-04-14T09:28:58.842Z,19.73
2018-04-14T09:31:26.398Z,18.83
2018-04-14T09:33:53.873Z,18.60
2018-04-14T09:36:21.471Z,18.97
2018-04-14T09:38:49.085Z,18.03
2018-04-14T09:49:17.569Z,18.57
2018-04-14T09:51:45.130Z,19.83
2018-04-14T09:54:12.682Z,18.20
2018-04-14T09:56:40.677Z,19.00
2018-04-14T09:59:30.741Z,18.37
2018-04-14T10:07:35.287Z,18.20
2018-04-14T10:10:02.877Z,18.83
2018-04-14T10:12:30.431Z,19.13
2018-04-14T10:22:52.099Z,19.47
2018-04-14T10:25:19.754Z,19.57
2018-04-14T10:27:47.313Z,17.70
2018-04-14T10:30:14.927Z,19.27
2018-04-14T10:41:50.579Z,18.67
2018-04-14T10:44:18.138Z,18.23
2018-04-14T10:46:45.681Z,18.03
2018-04-14T10:58:29.498Z,17.47
2018-04-14T11:00:57.019Z,16.37
2018-04-14T11:03:24.688Z,16.47
2018-04-14T11:16:24.112Z,18.60
2018-04-14T11:18:51.669Z,19.17
2018-04-14T11:21:19.287Z,16.60
2018-04-14T11:23:46.865Z,18.33
2018-04-14T11:26:14.541Z,18.23
2018-04-14T11:28:45.797Z,18.57
2018-04-14T11:31:14.431Z,18.57
2018-04-14T11:33:41.956Z,18.83
2018-04-14T11:36:09.485Z,18.87
2018-04-14T11:38:37.095Z,20.23
2018-04-14T11:41:04.853Z,19.63
2018-04-14T11:43:32.507Z,20.67
2018-04-14T11:46:00.124Z,20.23
2018-04-14T11:48:27.724Z,20.53
2018-04-14T11:50:55.257Z,20.40
2018-04-14T11:53:22.859Z,20.73
2018-04-14T11:55:50.387Z,21.83
2018-04-14T11:58:18.143Z,22.03
2018-04-14T12:00:45.699Z,21.67
2018-04-14T12:03:13.331Z,22.40
2018-04-14T12:05:40.920Z,22.83
2018-04-14T12:08:08.493Z,22.37
2018-04-14T12:10:36.017Z,22.57
2018-04-14T12:13:03.599Z,23.40
2018-04-14T12:15:31.220Z,23.97
2018-04-14T12:17:58.775Z,24.17
2018-04-14T12:20:26.503Z,23.43
2018-04-14T12:22:54.076Z,25.20
2018-04-14T12:25:21.692Z,24.93
2018-04-14T12:27:49.204Z,25.73
2018-04-14T12:30:16.727Z,24.57
2018-04-14T12:32:44.411Z,25.10
2018-04-14T12:35:12.171Z,25.57
2018-04-14T12:37:39.837Z,25.30
2018-04-14T12:40:07.515Z,25.40
2018-04-14T12:42:35.082Z,24.57
2018-04-14T12:45:02.600Z,24.93
2018-04-14T12:47:30.145Z,24.80
2018-04-14T12:49:57.725Z,24.13
2018-04-14T12:52:25.334Z,25.00
2018-04-14T12:54:52.959Z,24.60
2018-04-14T12:57:20.635Z,25.90
2018-04-14T12:59:48.179Z,26.13
2018-04-14T13:02:15.743Z,23.63
2018-04-14T13:04:44.293Z,23.90
2018-04-14T13:07:14.424Z,24.80
2018-04-14T13:09:45.869Z,25.30
2018-04-14T13:12:14.819Z,26.13
2018-04-14T13:14:42.583Z,26.47
2018-04-14T13:17:10.112Z,24.83
2018-04-14T13:19:37.647Z,25.33
2018-04-14T13:22:05.300Z,26.23
2018-04-14T13:24:36.825Z,24.37
2018-04-14T13:27:08.842Z,24.30
2018-04-14T13:29:40.757Z,25.97
2018-04-14T13:32:12.700Z,24.53
2018-04-14T13:34:40.267Z,23.87
2018-04-14T13:37:07.838Z,24.77
2018-04-14T13:39:35.408Z,24.57
2018-04-14T13:42:04.771Z,24.00
2018-04-14T13:44:36.967Z,23.67
2018-04-14T13:47:05.885Z,24.20
2018-04-14T13:49:33.415Z,23.73
2018-04-14T13:52:00.960Z,23.97
2018-04-14T13:54:28.525Z,24.27
2018-04-14T13:56:56.090Z,23.77
2018-04-14T13:59:26.045Z,24.10
2018-04-14T14:01:56.849Z,24.03
2018-04-14T14:04:26.808Z,23.07
2018-04-14T14:06:54.363Z,22.23
2018-04-14T14:09:21.873Z,23.53
2018-04-14T14:11:49.463Z,22.53
2018-04-14T14:14:17.072Z,22.50
2018-04-14T14:16:46.952Z,22.47
2018-04-14T14:19:14.633Z,22.73
2018-04-14T14:21:42.947Z,23.70
2018-04-14T14:24:10.747Z,23.13
2018-04-14T14:26:38.379Z,21.93
2018-04-14T14:29:05.997Z,21.60
2018-04-14T14:31:33.592Z,21.70
2018-04-14T14:34:01.143Z,21.20
2018-04-14T14:39:14.122Z,21.93
2018-04-14T14:41:43.198Z,22.43
2018-04-14T14:44:10.723Z,22.57
2018-04-14T14:46:38.287Z,22.97
2018-04-14T14:49:05.895Z,21.40
2018-04-14T14:51:33.632Z,19.57
2018-04-14T14:54:02.369Z,21.60
2018-04-14T14:56:30.484Z,20.10
2018-04-14T14:58:59.205Z,17.83
2018-04-14T15:01:26.760Z,16.90
2018-04-14T15:03:54.295Z,18.67
2018-04-14T15:06:21.926Z,19.17
2018-04-14T15:08:50.695Z,19.00
2018-04-14T15:11:18.352Z,18.23
2018-04-14T15:13:47.560Z,16.87
2018-04-14T15:16:16.152Z,16.90
2018-04-14T15:18:43.759Z,16.57
2018-04-14T15:21:12.663Z,17.30
2018-04-14T15:23:41.996Z,15.53
2018-04-14T15:26:10.611Z,15.17
2018-04-14T15:28:39.066Z,15.73
2018-04-14T15:31:06.707Z,14.80
2018-04-14T15:33:34.333Z,15.50
2018-04-14T15:36:01.858Z,14.77
2018-04-14T15:38:29.382Z,14.10
2018-04-14T15:40:56.918Z,13.47
2018-04-14T15:43:24.835Z,15.27
2018-04-14T15:45:52.999Z,14.70
2018-04-14T15:48:21.143Z,15.07
2018-04-14T15:50:49.023Z,14.40
2018-04-14T15:53:16.591Z,15.00
2018-04-14T15:55:44.130Z,13.77
2018-04-14T15:58:11.701Z,15.30
2018-04-14T16:00:41.099Z,16.00
2018-04-14T16:03:09.991Z,15.10
2018-04-14T16:05:38.857Z,14.37
2018-04-14T16:08:06.478Z,12.97
2018-04-14T16:10:34.005Z,12.63
2018-04-14T16:13:01.551Z,14.80
2018-04-14T16:15:29.113Z,14.10
2018-04-14T16:17:57.911Z,14.53
2018-04-14T16:20:29.228Z,14.70
2018-04-14T16:28:07.763Z,15.37
2018-04-14T16:30:35.307Z,13.57
2018-04-14T16:33:02.922Z,13.83
2018-04-14T16:35:30.519Z,13.93
2018-04-14T16:37:58.662Z,14.13
2018-04-14T16:40:33.027Z,14.17
2018-04-14T16:43:00.680Z,14.27
2018-04-14T16:45:28.207Z,13.93
2018-04-14T16:47:55.788Z,15.53
2018-04-14T16:50:23.386Z,15.00
2018-04-14T16:52:58.998Z,15.97
2018-04-14T16:55:26.739Z,17.33
2018-04-14T17:00:29.143Z,17.17
2018-04-14T17:02:56.693Z,18.90
2018-04-14T17:05:24.232Z,19.17
2018-04-14T17:07:51.863Z,20.17
2018-04-14T17:10:22.592Z,21.10
2018-04-14T17:12:53.167Z,21.33
2018-04-14T17:15:21.665Z,22.60
2018-04-14T17:17:49.284Z,20.80
2018-04-14T17:20:16.828Z,21.50
2018-04-14T17:22:44.388Z,21.60
2018-04-14T17:25:12.263Z,21.70
2018-04-14T17:27:41.080Z,22.97
2018-04-14T17:30:11.115Z,22.83
2018-04-14T17:32:41.165Z,22.83
2018-04-14T17:35:08.755Z,23.60
2018-04-14T17:37:36.295Z,22.93
2018-04-14T17:40:03.860Z,23.47
2018-04-14T17:42:31.418Z,23.87
2018-04-14T17:44:58.986Z,23.50
2018-04-14T17:47:26.609Z,23.20
2018-04-14T17:49:55.274Z,23.40
2018-04-14T17:52:23.820Z,24.17
2018-04-14T17:54:51.335Z,23.37
2018-04-14T17:57:18.854Z,23.20
2018-04-14T17:59:46.635Z,23.10
2018-04-14T18:07:49.340Z,21.60
2018-04-14T18:10:16.900Z,21.23
2018-04-14T18:12:44.432Z,20.67
2018-04-14T18:15:11.980Z,19.87
2018-04-14T18:22:50.475Z,18.77
2018-04-14T18:25:21.245Z,18.13
2018-04-14T18:27:48.800Z,18.83
2018-04-14T18:30:16.352Z,18.47
2018-04-14T18:32:43.887Z,19.33
2018-04-14T18:35:13.334Z,20.07
2018-04-14T18:37:45.503Z,19.17
2018-04-14T18:40:18.034Z,19.00
2018-04-14T18:42:47.016Z,19.73
2018-04-14T18:45:14.581Z,19.03
2018-04-14T18:47:42.112Z,20.23
2018-04-14T18:50:09.669Z,19.37
2018-04-14T18:52:38.290Z,18.63
2018-04-14T18:55:06.983Z,19.50
2018-04-14T18:57:34.640Z,19.57
2018-04-14T19:00:05.615Z,20.07
2018-04-14T19:02:33.187Z,19.33
2018-04-14T19:05:00.761Z,20.53
2018-04-14T19:07:28.328Z,20.80
2018-04-14T19:09:58.114Z,19.77
2018-04-14T19:12:26.561Z,21.43
2018-04-14T19:14:55.017Z,21.20
2018-04-14T19:17:33.085Z,21.90
2018-04-14T19:20:00.685Z,21.27
2018-04-14T19:22:28.202Z,22.60
2018-04-14T19:24:56.415Z,22.13
2018-04-14T19:27:27.094Z,22.80
2018-04-14T19:29:54.721Z,22.87
2018-04-14T19:32:23.128Z,24.13
2018-04-14T19:34:54.498Z,24.13
2018-04-14T19:37:22.067Z,25.60
2018-04-14T19:39:49.739Z,25.83
2018-04-14T19:42:17.407Z,24.97
2018-04-14T19:44:49.948Z,25.50
2018-04-14T19:47:33.248Z,24.33
2018-04-14T19:50:02.770Z,25.23
2018-04-14T19:52:30.406Z,26.67
2018-04-14T19:54:57.956Z,25.90
2018-04-14T19:57:25.531Z,26.70
2018-04-14T19:59:53.100Z,25.70
2018-04-14T20:02:23.175Z,25.30
2018-04-14T20:04:53.939Z,25.77
2018-04-14T20:07:34.760Z,25.90
2018-04-14T20:10:02.307Z,27.43
2018-04-14T20:12:29.931Z,27.03
2018-04-14T20:14:57.462Z,27.33
2018-04-14T20:17:29.493Z,28.17
2018-04-14T20:20:01.945Z,28.10
2018-04-14T20:22:34.155Z,27.53
2018-04-14T20:27:54.578Z,26.80
2018-04-14T20:30:22.160Z,27.57
2018-04-14T20:32:49.718Z,27.63
2018-04-14T20:35:21.021Z,30.27
2018-04-14T20:46:25.519Z,30.77
2018-04-14T20:48:53.090Z,29.43
2018-04-14T20:51:20.701Z,29.90
2018-04-14T21:02:44.133Z,31.23
2018-04-14T21:05:11.779Z,30.83
2018-04-14T21:07:39.327Z,30.50
2018-04-14T21:10:07.151Z,31.37
2018-04-14T21:17:46.173Z,30.67
2018-04-14T21:20:13.811Z,29.87
2018-04-14T21:22:41.425Z,28.90
2018-04-14T21:25:08.968Z,28.97
2018-04-14T21:27:53.215Z,29.13
2018-04-14T21:35:27.496Z,28.90
2018-04-14T21:37:55.051Z,27.67
2018-04-14T21:40:22.572Z,28.13
2018-04-14T21:42:50.197Z,28.23
2018-04-14T21:45:21.010Z,27.10
2018-04-14T21:47:51.153Z,25.27
2018-04-14T21:50:18.763Z,26.70
2018-04-14T21:52:49.014Z,27.30
2018-04-14T21:55:16.573Z,26.53
2018-04-14T21:57:44.132Z,25.57
2018-04-14T22:00:11.767Z,25.70
2018-04-14T22:02:41.025Z,25.53
2018-04-14T22:05:11.187Z,25.90
2018-04-14T22:07:46.004Z,25.30
2018-04-14T22:10:13.615Z,24.83
2018-04-14T22:12:41.230Z,24.40
2018-04-14T22:15:08.758Z,24.77
2018-04-14T22:17:36.322Z,25.03
2018-04-14T22:20:06.144Z,26.00
2018-04-14T22:22:35.020Z,24.57
2018-04-14T22:25:02.792Z,23.17
2018-04-14T22:27:30.399Z,23.57
2018-04-14T22:29:57.998Z,24.13
2018-04-14T22:32:25.564Z,22.93
2018-04-14T22:34:53.198Z,25.30
2018-04-14T22:37:24.981Z,23.37
2018-04-14T22:39:55.130Z,23.60
2018-04-14T22:42:22.848Z,22.00
2018-04-14T22:44:51.125Z,22.17
2018-04-14T22:47:18.659Z,21.80
2018-04-14T22:49:46.302Z,21.50
2018-04-14T22:52:13.863Z,22.10
2018-04-14T22:54:47.197Z,21.67
2018-04-14T22:57:22.220Z,22.13
2018-04-14T22:59:50.813Z,21.60
2018-04-14T23:02:18.355Z,23.20
2018-04-14T23:04:45.951Z,23.27
2018-04-14T23:07:13.510Z,21.47
2018-04-14T23:09:41.035Z,21.03
2018-04-14T23:12:13.039Z,22.77
2018-04-14T23:14:43.269Z,21.83
2018-04-14T23:17:18.803Z,22.20
2018-04-14T23:19:46.355Z,21.73
2018-04-14T23:22:15.971Z,22.07
2018-04-14T23:24:43.551Z,22.37
2018-04-14T23:27:11.152Z,21.87
2018-04-14T23:29:38.873Z,21.13
2018-04-14T23:32:09.340Z,21.73
2018-04-14T23:34:38.494Z,21.67
2018-04-14T23:37:06.037Z,23.17
2018-04-14T23:39:33.623Z,23.67
2018-04-14T23:42:01.151Z,22.57
2018-04-14T23:44:28.731Z,22.17
2018-04-14T23:47:03.018Z,22.90
2018-04-14T23:49:30.696Z,21.80
2018-04-14T23:52:01.004Z,22.43
2018-04-14T23:54:28.544Z,21.17
2018-04-14T23:56:56.103Z,20.73
2018-04-14T23:59:23.689Z,22.53
